Terminal Aerodrome Forecast
Issued by NWS

Home | Current Version | Previous Version | Text Only | Print | Product List | Glossary On
Versions: 1 2 3 4 5 6 7 8 9 10 11 12 13 14 15 16 17 18 19
000
FTUS43 KLSX 092330
TAFCPS
TAF
KCPS 092330Z 1000/1024 31012G20KT P6SM SCT070
     FM101000 30009KT P6SM SCT250
     FM102100 29007KT P6SM VCSH BKN070=

USA.gov is the U.S. government's official web portal to all federal, state and local government web resources and services.